Trego, MT (59934)

9:03 PM MST on December 27, 2014 (GMT -0700)
Mud Lake Road | Change Station
CLOSE
Current Station
Personal Weather Station
Location: Eureka, MT
Elevation: 2817 ft
Nearby Weather Stations
Active Advisory: Winter Storm Warning

Elev 2817 ft 48.82 °N, 114.95 °W | Updated 7 seconds ago

Snow
Snow
28.2 °F
Feels Like 28 °F
N
0.0
Wind Variable Wind from NNW
Gusts 0.0 mph

Today
High -- | Low -- °F
--% Chance of Precip.
Yesterday
High -- | Low -- °F
Precip. -- in
8:31 AM 4:49 PM
Waxing Crescent, 43% visible
Pressure 29.86 in
Visibility 2.5 miles
Clouds Few 300 ft
Scattered Clouds 1800 ft
Windchill 28 °F
Dew Point 21 °F
Humidity 75%
Rainfall 0.00 in
Snow Depth Not available.
UV 0 out of 12
Pollen .10 out of 12
Air Quality Not available.
Flu Activity Not available.
METAR K65S 280355Z AUTO 34003KT 2 1/2SM -SN FEW003 SCT018 M02/M02 A2986 RMK AO2 P0003

More Conditions Fewer Conditions

Pressure 29.86 in
Visibility 2.5 miles
Clouds Few 300 ft
Scattered Clouds 1800 ft
Windchill 28 °F
Dew Point 21 °F
Humidity 75%
Rainfall 0.00 in
Snow Depth Not available.
UV 0 out of 12
Pollen .10 out of 12
Air Quality Not available.
Flu Activity Not available.
METAR K65S 280355Z AUTO 34003KT 2 1/2SM -SN FEW003 SCT018 M02/M02 A2986 RMK AO2 P0003

More Conditions Fewer Conditions

10-Day Weather Forecast

Almanac

Astronomy

Dec. 27, 2014 Rise Set
Actual Time
Civil Twilight
Nautical Twilight
Astronomical Twilight
Moon
Length of Visible Light
Length of Day
Tomorrow will be .
, % of the Moon is Illuminated

Today's Extremes

State Highs State Lows

Community

WunderPhotos

Upload Photos

1,781,187 photos uploaded!

WunderBlogs® & News

Nearby

Air Quality

  Air Quality AQ Index Pollutant
Not available.

Snow Depth

Station Depth Elevation

Earthquake Activity

City Distance Mag. Time & Date
Minimum magnitude displayed is 2.5.

Coastal Water Temperatures

Place Temperature

Nearby Weather Stations